sensor_id;sensor_type;location;lat;lon;timestamp;P1;durP1;ratioP1;P2;durP2;ratioP2
52530;SDS011;38441;52.894;6.040;2022-08-27T00:01:26;3.47;;;2.45;;
52530;SDS011;38441;52.894;6.040;2022-08-27T00:03:54;4.88;;;2.85;;
52530;SDS011;38441;52.894;6.040;2022-08-27T00:06:21;5.43;;;3.30;;
52530;SDS011;38441;52.894;6.040;2022-08-27T00:08:49;4.30;;;2.72;;
52530;SDS011;38441;52.894;6.040;2022-08-27T00:11:16;6.72;;;3.45;;
52530;SDS011;38441;52.894;6.040;2022-08-27T00:13:44;4.50;;;2.83;;
52530;SDS011;38441;52.894;6.040;2022-08-27T00:16:11;6.22;;;2.97;;
52530;SDS011;38441;52.894;6.040;2022-08-27T00:18:39;4.68;;;2.85;;
52530;SDS011;38441;52.894;6.040;2022-08-27T00:21:06;6.65;;;3.10;;
52530;SDS011;38441;52.894;6.040;2022-08-27T00:23:32;5.00;;;2.90;;
52530;SDS011;38441;52.894;6.040;2022-08-27T00:25:58;5.78;;;2.92;;
52530;SDS011;38441;52.894;6.040;2022-08-27T00:28:25;5.78;;;3.00;;
52530;SDS011;38441;52.894;6.040;2022-08-27T00:30:52;6.43;;;2.90;;
52530;SDS011;38441;52.894;6.040;2022-08-27T00:33:19;5.40;;;2.83;;
52530;SDS011;38441;52.894;6.040;2022-08-27T00:35:45;5.25;;;2.88;;
52530;SDS011;38441;52.894;6.040;2022-08-27T00:38:11;5.72;;;2.90;;
52530;SDS011;38441;52.894;6.040;2022-08-27T00:40:38;5.88;;;2.78;;
52530;SDS011;38441;52.894;6.040;2022-08-27T00:43:05;6.35;;;3.15;;
52530;SDS011;38441;52.894;6.040;2022-08-27T00:45:31;5.43;;;2.90;;
52530;SDS011;38441;52.894;6.040;2022-08-27T00:48:01;4.40;;;3.03;;
52530;SDS011;38441;52.894;6.040;2022-08-27T00:53:06;4.38;;;2.70;;
52530;SDS011;38441;52.894;6.040;2022-08-27T00:55:37;6.43;;;3.20;;
52530;SDS011;38441;52.894;6.040;2022-08-27T00:58:08;5.50;;;3.00;;
52530;SDS011;38441;52.894;6.040;2022-08-27T01:00:40;7.65;;;3.58;;
52530;SDS011;38441;52.894;6.040;2022-08-27T01:03:06;7.10;;;3.58;;
52530;SDS011;38441;52.894;6.040;2022-08-27T01:05:32;4.35;;;2.88;;
52530;SDS011;38441;52.894;6.040;2022-08-27T01:08:02;4.00;;;2.78;;
52530;SDS011;38441;52.894;6.040;2022-08-27T01:10:33;6.35;;;3.15;;
52530;SDS011;38441;52.894;6.040;2022-08-27T01:13:00;6.00;;;2.67;;
52530;SDS011;38441;52.894;6.040;2022-08-27T01:15:26;5.30;;;2.90;;
52530;SDS011;38441;52.894;6.040;2022-08-27T01:17:54;5.63;;;2.92;;
52530;SDS011;38441;52.894;6.040;2022-08-27T01:20:22;4.03;;;2.75;;
52530;SDS011;38441;52.894;6.040;2022-08-27T01:22:54;6.97;;;2.92;;
52530;SDS011;38441;52.894;6.040;2022-08-27T01:25:46;3.80;;;2.10;;
52530;SDS011;38441;52.894;6.040;2022-08-27T01:28:12;5.25;;;2.90;;
52530;SDS011;38441;52.894;6.040;2022-08-27T01:30:39;5.93;;;3.00;;
52530;SDS011;38441;52.894;6.040;2022-08-27T01:33:12;5.00;;;2.50;;
52530;SDS011;38441;52.894;6.040;2022-08-27T01:35:41;6.70;;;2.58;;
52530;SDS011;38441;52.894;6.040;2022-08-27T01:38:07;8.38;;;3.17;;
52530;SDS011;38441;52.894;6.040;2022-08-27T01:40:35;6.65;;;3.03;;
52530;SDS011;38441;52.894;6.040;2022-08-27T01:43:02;5.70;;;2.97;;
52530;SDS011;38441;52.894;6.040;2022-08-27T01:45:29;4.22;;;2.65;;
52530;SDS011;38441;52.894;6.040;2022-08-27T01:47:57;5.38;;;3.30;;
52530;SDS011;38441;52.894;6.040;2022-08-27T01:50:29;4.50;;;2.53;;
52530;SDS011;38441;52.894;6.040;2022-08-27T01:52:59;6.50;;;3.33;;
52530;SDS011;38441;52.894;6.040;2022-08-27T01:55:30;6.85;;;3.13;;
52530;SDS011;38441;52.894;6.040;2022-08-27T01:57:56;5.45;;;2.90;;
52530;SDS011;38441;52.894;6.040;2022-08-27T02:00:24;4.35;;;2.78;;
52530;SDS011;38441;52.894;6.040;2022-08-27T02:02:52;3.88;;;2.40;;
52530;SDS011;38441;52.894;6.040;2022-08-27T02:05:18;5.97;;;2.90;;
52530;SDS011;38441;52.894;6.040;2022-08-27T02:07:44;6.13;;;2.50;;
52530;SDS011;38441;52.894;6.040;2022-08-27T02:10:11;5.22;;;2.42;;
52530;SDS011;38441;52.894;6.040;2022-08-27T02:12:40;4.72;;;2.70;;
52530;SDS011;38441;52.894;6.040;2022-08-27T02:15:06;4.55;;;2.53;;
52530;SDS011;38441;52.894;6.040;2022-08-27T02:17:32;5.13;;;2.83;;
52530;SDS011;38441;52.894;6.040;2022-08-27T02:19:58;5.00;;;2.63;;
52530;SDS011;38441;52.894;6.040;2022-08-27T02:22:24;4.70;;;2.72;;
52530;SDS011;38441;52.894;6.040;2022-08-27T02:24:50;4.55;;;2.50;;
52530;SDS011;38441;52.894;6.040;2022-08-27T02:27:16;6.75;;;3.00;;
52530;SDS011;38441;52.894;6.040;2022-08-27T02:29:42;4.75;;;2.58;;
52530;SDS011;38441;52.894;6.040;2022-08-27T02:32:08;5.00;;;2.70;;
52530;SDS011;38441;52.894;6.040;2022-08-27T02:34:34;6.30;;;2.85;;
52530;SDS011;38441;52.894;6.040;2022-08-27T02:37:00;4.57;;;3.13;;
52530;SDS011;38441;52.894;6.040;2022-08-27T02:39:26;5.07;;;3.05;;
52530;SDS011;38441;52.894;6.040;2022-08-27T02:41:53;5.20;;;3.33;;
52530;SDS011;38441;52.894;6.040;2022-08-27T02:44:19;5.72;;;2.83;;
52530;SDS011;38441;52.894;6.040;2022-08-27T02:46:45;6.78;;;3.63;;
52530;SDS011;38441;52.894;6.040;2022-08-27T02:49:11;7.07;;;3.45;;
52530;SDS011;38441;52.894;6.040;2022-08-27T02:51:37;5.05;;;3.30;;
52530;SDS011;38441;52.894;6.040;2022-08-27T02:54:03;5.70;;;3.35;;
52530;SDS011;38441;52.894;6.040;2022-08-27T02:56:29;4.57;;;2.75;;
52530;SDS011;38441;52.894;6.040;2022-08-27T02:58:55;5.03;;;3.20;;
52530;SDS011;38441;52.894;6.040;2022-08-27T03:01:23;4.88;;;3.20;;
52530;SDS011;38441;52.894;6.040;2022-08-27T03:03:49;5.30;;;2.90;;
52530;SDS011;38441;52.894;6.040;2022-08-27T03:06:15;5.43;;;3.70;;
52530;SDS011;38441;52.894;6.040;2022-08-27T03:08:41;5.18;;;2.83;;
52530;SDS011;38441;52.894;6.040;2022-08-27T03:11:07;6.38;;;3.20;;
52530;SDS011;38441;52.894;6.040;2022-08-27T03:13:36;5.10;;;3.03;;
52530;SDS011;38441;52.894;6.040;2022-08-27T03:16:03;5.90;;;2.83;;
52530;SDS011;38441;52.894;6.040;2022-08-27T03:18:29;4.45;;;2.95;;
52530;SDS011;38441;52.894;6.040;2022-08-27T03:20:57;6.10;;;3.00;;
52530;SDS011;38441;52.894;6.040;2022-08-27T03:23:27;5.50;;;2.90;;
52530;SDS011;38441;52.894;6.040;2022-08-27T03:25:57;5.45;;;3.25;;
52530;SDS011;38441;52.894;6.040;2022-08-27T03:28:26;5.68;;;2.97;;
52530;SDS011;38441;52.894;6.040;2022-08-27T03:30:55;4.65;;;2.97;;
52530;SDS011;38441;52.894;6.040;2022-08-27T03:33:24;5.68;;;3.40;;
52530;SDS011;38441;52.894;6.040;2022-08-27T03:35:51;6.00;;;3.20;;
52530;SDS011;38441;52.894;6.040;2022-08-27T03:38:17;5.93;;;3.05;;
52530;SDS011;38441;52.894;6.040;2022-08-27T03:40:43;5.38;;;3.38;;
52530;SDS011;38441;52.894;6.040;2022-08-27T03:43:13;4.45;;;2.72;;
52530;SDS011;38441;52.894;6.040;2022-08-27T03:45:43;6.25;;;3.47;;
52530;SDS011;38441;52.894;6.040;2022-08-27T03:48:10;8.00;;;3.05;;
52530;SDS011;38441;52.894;6.040;2022-08-27T03:50:40;5.82;;;3.10;;
52530;SDS011;38441;52.894;6.040;2022-08-27T03:53:08;5.15;;;3.03;;
52530;SDS011;38441;52.894;6.040;2022-08-27T03:55:34;7.25;;;3.85;;
52530;SDS011;38441;52.894;6.040;2022-08-27T03:58:01;5.32;;;3.00;;
52530;SDS011;38441;52.894;6.040;2022-08-27T04:00:27;6.70;;;2.97;;
52530;SDS011;38441;52.894;6.040;2022-08-27T04:02:53;6.38;;;3.00;;
52530;SDS011;38441;52.894;6.040;2022-08-27T04:05:19;4.85;;;2.85;;
52530;SDS011;38441;52.894;6.040;2022-08-27T04:07:46;5.05;;;2.75;;
52530;SDS011;38441;52.894;6.040;2022-08-27T04:10:13;5.20;;;2.50;;
52530;SDS011;38441;52.894;6.040;2022-08-27T04:12:40;3.78;;;2.33;;
52530;SDS011;38441;52.894;6.040;2022-08-27T04:15:07;5.20;;;3.15;;
52530;SDS011;38441;52.894;6.040;2022-08-27T04:17:34;6.97;;;3.63;;
52530;SDS011;38441;52.894;6.040;2022-08-27T04:20:00;6.85;;;3.13;;
52530;SDS011;38441;52.894;6.040;2022-08-27T04:22:27;6.88;;;3.67;;
52530;SDS011;38441;52.894;6.040;2022-08-27T04:24:53;6.32;;;3.13;;
52530;SDS011;38441;52.894;6.040;2022-08-27T04:27:19;5.43;;;2.88;;
52530;SDS011;38441;52.894;6.040;2022-08-27T04:29:46;5.57;;;3.15;;
52530;SDS011;38441;52.894;6.040;2022-08-27T04:32:12;4.80;;;2.85;;
52530;SDS011;38441;52.894;6.040;2022-08-27T04:34:38;5.32;;;2.80;;
52530;SDS011;38441;52.894;6.040;2022-08-27T04:37:04;6.60;;;2.70;;
52530;SDS011;38441;52.894;6.040;2022-08-27T04:39:30;5.10;;;2.75;;
52530;SDS011;38441;52.894;6.040;2022-08-27T04:41:57;5.05;;;3.08;;
52530;SDS011;38441;52.894;6.040;2022-08-27T04:44:26;5.85;;;3.13;;
52530;SDS011;38441;52.894;6.040;2022-08-27T04:46:55;6.25;;;2.97;;
52530;SDS011;38441;52.894;6.040;2022-08-27T04:49:22;7.97;;;3.35;;
52530;SDS011;38441;52.894;6.040;2022-08-27T04:51:48;7.50;;;3.00;;
52530;SDS011;38441;52.894;6.040;2022-08-27T04:54:14;5.60;;;3.17;;
52530;SDS011;38441;52.894;6.040;2022-08-27T04:56:40;9.07;;;3.60;;
52530;SDS011;38441;52.894;6.040;2022-08-27T04:59:07;7.78;;;3.38;;
52530;SDS011;38441;52.894;6.040;2022-08-27T05:01:34;7.70;;;3.28;;
52530;SDS011;38441;52.894;6.040;2022-08-27T05:04:01;4.68;;;2.70;;
52530;SDS011;38441;52.894;6.040;2022-08-27T05:06:27;6.57;;;3.70;;
52530;SDS011;38441;52.894;6.040;2022-08-27T05:08:53;6.38;;;3.30;;
52530;SDS011;38441;52.894;6.040;2022-08-27T05:11:20;4.43;;;3.17;;
52530;SDS011;38441;52.894;6.040;2022-08-27T05:13:48;6.10;;;3.67;;
52530;SDS011;38441;52.894;6.040;2022-08-27T05:16:15;7.15;;;3.60;;
52530;SDS011;38441;52.894;6.040;2022-08-27T05:18:43;6.70;;;3.40;;
52530;SDS011;38441;52.894;6.040;2022-08-27T05:21:14;6.70;;;3.40;;
52530;SDS011;38441;52.894;6.040;2022-08-27T05:23:42;5.88;;;2.95;;
52530;SDS011;38441;52.894;6.040;2022-08-27T05:26:08;4.95;;;2.88;;
52530;SDS011;38441;52.894;6.040;2022-08-27T05:28:34;6.72;;;3.40;;
52530;SDS011;38441;52.894;6.040;2022-08-27T05:31:04;6.18;;;3.63;;
52530;SDS011;38441;52.894;6.040;2022-08-27T05:33:31;5.80;;;3.47;;
52530;SDS011;38441;52.894;6.040;2022-08-27T05:35:58;5.80;;;3.67;;
52530;SDS011;38441;52.894;6.040;2022-08-27T05:38:25;7.55;;;4.03;;
52530;SDS011;38441;52.894;6.040;2022-08-27T05:43:29;6.75;;;3.47;;
52530;SDS011;38441;52.894;6.040;2022-08-27T05:45:56;5.88;;;4.05;;
52530;SDS011;38441;52.894;6.040;2022-08-27T05:48:22;5.80;;;3.78;;
52530;SDS011;38441;52.894;6.040;2022-08-27T05:50:48;8.80;;;4.20;;
52530;SDS011;38441;52.894;6.040;2022-08-27T05:53:14;6.93;;;3.97;;
52530;SDS011;38441;52.894;6.040;2022-08-27T05:55:41;5.57;;;3.72;;
52530;SDS011;38441;52.894;6.040;2022-08-27T05:58:09;6.28;;;3.78;;
52530;SDS011;38441;52.894;6.040;2022-08-27T06:00:55;5.90;;;3.70;;
52530;SDS011;38441;52.894;6.040;2022-08-27T06:03:34;5.65;;;2.90;;
52530;SDS011;38441;52.894;6.040;2022-08-27T06:06:05;6.00;;;3.57;;
52530;SDS011;38441;52.894;6.040;2022-08-27T06:08:33;5.18;;;3.08;;
52530;SDS011;38441;52.894;6.040;2022-08-27T06:10:59;6.97;;;3.10;;
52530;SDS011;38441;52.894;6.040;2022-08-27T06:13:29;7.55;;;3.10;;
52530;SDS011;38441;52.894;6.040;2022-08-27T06:16:00;7.75;;;3.20;;
52530;SDS011;38441;52.894;6.040;2022-08-27T06:18:26;5.82;;;3.15;;
52530;SDS011;38441;52.894;6.040;2022-08-27T06:20:52;6.63;;;3.38;;
52530;SDS011;38441;52.894;6.040;2022-08-27T06:23:18;4.95;;;2.38;;
52530;SDS011;38441;52.894;6.040;2022-08-27T06:25:44;4.75;;;2.88;;
52530;SDS011;38441;52.894;6.040;2022-08-27T06:28:10;5.05;;;2.95;;
52530;SDS011;38441;52.894;6.040;2022-08-27T06:30:37;6.28;;;3.22;;
52530;SDS011;38441;52.894;6.040;2022-08-27T06:33:03;6.07;;;2.90;;
52530;SDS011;38441;52.894;6.040;2022-08-27T06:35:29;6.57;;;2.90;;
52530;SDS011;38441;52.894;6.040;2022-08-27T06:37:54;6.35;;;3.15;;
52530;SDS011;38441;52.894;6.040;2022-08-27T06:40:20;6.10;;;2.60;;
52530;SDS011;38441;52.894;6.040;2022-08-27T06:42:47;7.65;;;2.95;;
52530;SDS011;38441;52.894;6.040;2022-08-27T06:45:12;7.95;;;2.90;;
52530;SDS011;38441;52.894;6.040;2022-08-27T06:47:39;5.28;;;2.92;;
52530;SDS011;38441;52.894;6.040;2022-08-27T06:50:04;7.53;;;3.35;;
52530;SDS011;38441;52.894;6.040;2022-08-27T06:52:30;4.65;;;2.80;;
52530;SDS011;38441;52.894;6.040;2022-08-27T06:54:56;5.97;;;2.80;;
52530;SDS011;38441;52.894;6.040;2022-08-27T06:57:22;6.95;;;2.70;;
52530;SDS011;38441;52.894;6.040;2022-08-27T06:59:48;4.25;;;2.15;;
52530;SDS011;38441;52.894;6.040;2022-08-27T07:02:14;4.80;;;2.10;;
52530;SDS011;38441;52.894;6.040;2022-08-27T07:04:42;6.50;;;2.28;;
52530;SDS011;38441;52.894;6.040;2022-08-27T07:07:09;5.20;;;1.90;;
52530;SDS011;38441;52.894;6.040;2022-08-27T07:09:36;5.38;;;1.80;;
52530;SDS011;38441;52.894;6.040;2022-08-27T07:12:02;6.47;;;1.70;;
52530;SDS011;38441;52.894;6.040;2022-08-27T07:14:29;4.47;;;1.90;;
52530;SDS011;38441;52.894;6.040;2022-08-27T07:16:55;4.88;;;1.35;;
52530;SDS011;38441;52.894;6.040;2022-08-27T07:19:21;4.40;;;1.40;;
52530;SDS011;38441;52.894;6.040;2022-08-27T07:21:47;5.68;;;1.50;;
52530;SDS011;38441;52.894;6.040;2022-08-27T07:24:13;6.32;;;1.95;;
52530;SDS011;38441;52.894;6.040;2022-08-27T07:26:41;5.78;;;1.58;;
52530;SDS011;38441;52.894;6.040;2022-08-27T07:29:08;5.70;;;2.00;;
52530;SDS011;38441;52.894;6.040;2022-08-27T07:31:36;6.95;;;1.50;;
52530;SDS011;38441;52.894;6.040;2022-08-27T07:34:03;5.97;;;1.80;;
52530;SDS011;38441;52.894;6.040;2022-08-27T07:36:30;5.75;;;2.15;;
52530;SDS011;38441;52.894;6.040;2022-08-27T07:38:56;6.85;;;1.50;;
52530;SDS011;38441;52.894;6.040;2022-08-27T07:41:22;4.43;;;1.58;;
52530;SDS011;38441;52.894;6.040;2022-08-27T07:43:48;7.15;;;1.40;;
52530;SDS011;38441;52.894;6.040;2022-08-27T07:46:46;9.73;;;1.73;;
52530;SDS011;38441;52.894;6.040;2022-08-27T07:49:13;4.70;;;1.25;;
52530;SDS011;38441;52.894;6.040;2022-08-27T07:51:38;3.90;;;1.48;;
52530;SDS011;38441;52.894;6.040;2022-08-27T07:54:04;5.15;;;1.23;;
52530;SDS011;38441;52.894;6.040;2022-08-27T07:56:29;3.85;;;1.40;;
52530;SDS011;38441;52.894;6.040;2022-08-27T07:58:55;5.22;;;1.42;;
52530;SDS011;38441;52.894;6.040;2022-08-27T08:01:21;6.90;;;1.35;;
52530;SDS011;38441;52.894;6.040;2022-08-27T08:03:48;7.10;;;1.75;;
52530;SDS011;38441;52.894;6.040;2022-08-27T08:06:14;5.10;;;1.00;;
52530;SDS011;38441;52.894;6.040;2022-08-27T08:08:41;4.60;;;1.20;;
52530;SDS011;38441;52.894;6.040;2022-08-27T08:11:07;5.15;;;1.17;;
52530;SDS011;38441;52.894;6.040;2022-08-27T08:13:34;5.40;;;1.20;;
52530;SDS011;38441;52.894;6.040;2022-08-27T08:16:00;5.03;;;1.38;;
52530;SDS011;38441;52.894;6.040;2022-08-27T08:18:26;6.63;;;1.48;;
52530;SDS011;38441;52.894;6.040;2022-08-27T08:20:57;5.00;;;0.82;;
52530;SDS011;38441;52.894;6.040;2022-08-27T08:23:30;3.85;;;1.20;;
52530;SDS011;38441;52.894;6.040;2022-08-27T08:25:56;3.67;;;1.38;;
52530;SDS011;38441;52.894;6.040;2022-08-27T08:28:23;4.60;;;1.02;;
52530;SDS011;38441;52.894;6.040;2022-08-27T08:30:49;6.45;;;1.40;;
52530;SDS011;38441;52.894;6.040;2022-08-27T08:33:16;5.50;;;1.25;;
52530;SDS011;38441;52.894;6.040;2022-08-27T08:35:42;5.70;;;1.10;;
52530;SDS011;38441;52.894;6.040;2022-08-27T08:38:07;6.95;;;1.20;;
52530;SDS011;38441;52.894;6.040;2022-08-27T08:40:35;5.18;;;0.77;;
52530;SDS011;38441;52.894;6.040;2022-08-27T08:43:05;7.43;;;1.63;;
52530;SDS011;38441;52.894;6.040;2022-08-27T08:45:36;6.25;;;1.77;;
52530;SDS011;38441;52.894;6.040;2022-08-27T08:48:07;8.73;;;1.52;;
52530;SDS011;38441;52.894;6.040;2022-08-27T08:50:46;5.88;;;1.55;;
52530;SDS011;38441;52.894;6.040;2022-08-27T08:58:25;5.70;;;0.90;;
52530;SDS011;38441;52.894;6.040;2022-08-27T09:00:57;6.28;;;1.30;;
52530;SDS011;38441;52.894;6.040;2022-08-27T09:03:25;3.03;;;0.60;;
52530;SDS011;38441;52.894;6.040;2022-08-27T09:05:54;6.85;;;0.80;;
52530;SDS011;38441;52.894;6.040;2022-08-27T09:08:33;8.68;;;0.98;;
52530;SDS011;38441;52.894;6.040;2022-08-27T09:13:42;6.47;;;0.90;;
52530;SDS011;38441;52.894;6.040;2022-08-27T09:16:22;5.43;;;0.75;;
52530;SDS011;38441;52.894;6.040;2022-08-27T09:18:48;2.78;;;0.75;;
52530;SDS011;38441;52.894;6.040;2022-08-27T09:23:57;5.32;;;1.05;;
52530;SDS011;38441;52.894;6.040;2022-08-27T09:26:29;3.75;;;0.70;;
52530;SDS011;38441;52.894;6.040;2022-08-27T09:29:01;5.95;;;0.70;;
52530;SDS011;38441;52.894;6.040;2022-08-27T09:31:41;3.80;;;1.10;;
52530;SDS011;38441;52.894;6.040;2022-08-27T09:34:08;5.57;;;0.90;;
52530;SDS011;38441;52.894;6.040;2022-08-27T09:42:29;5.70;;;0.70;;
52530;SDS011;38441;52.894;6.040;2022-08-27T09:45:11;5.95;;;0.90;;
52530;SDS011;38441;52.894;6.040;2022-08-27T09:47:46;6.32;;;0.88;;
52530;SDS011;38441;52.894;6.040;2022-08-27T09:50:17;5.70;;;1.00;;
52530;SDS011;38441;52.894;6.040;2022-08-27T09:52:55;4.45;;;1.17;;
52530;SDS011;38441;52.894;6.040;2022-08-27T09:55:35;5.00;;;0.73;;
52530;SDS011;38441;52.894;6.040;2022-08-27T09:58:16;3.75;;;1.10;;
52530;SDS011;38441;52.894;6.040;2022-08-27T10:00:48;5.80;;;1.00;;
52530;SDS011;38441;52.894;6.040;2022-08-27T10:03:22;3.55;;;0.85;;
52530;SDS011;38441;52.894;6.040;2022-08-27T10:05:48;5.03;;;0.88;;
52530;SDS011;38441;52.894;6.040;2022-08-27T10:11:21;7.40;;;1.55;;
52530;SDS011;38441;52.894;6.040;2022-08-27T10:13:57;4.72;;;0.70;;
52530;SDS011;38441;52.894;6.040;2022-08-27T10:22:25;7.93;;;0.70;;
52530;SDS011;38441;52.894;6.040;2022-08-27T10:28:00;3.30;;;0.82;;
52530;SDS011;38441;52.894;6.040;2022-08-27T10:38:45;3.72;;;0.80;;
52530;SDS011;38441;52.894;6.040;2022-08-27T10:41:16;3.80;;;1.00;;
52530;SDS011;38441;52.894;6.040;2022-08-27T10:44:14;6.53;;;1.05;;
52530;SDS011;38441;52.894;6.040;2022-08-27T10:47:14;6.50;;;0.80;;
52530;SDS011;38441;52.894;6.040;2022-08-27T10:50:06;5.13;;;0.93;;
52530;SDS011;38441;52.894;6.040;2022-08-27T10:52:48;4.53;;;0.70;;
52530;SDS011;38441;52.894;6.040;2022-08-27T10:55:22;4.35;;;0.75;;
52530;SDS011;38441;52.894;6.040;2022-08-27T10:58:05;6.30;;;0.70;;
52530;SDS011;38441;52.894;6.040;2022-08-27T11:03:14;4.93;;;0.95;;
52530;SDS011;38441;52.894;6.040;2022-08-27T11:05:47;6.28;;;1.27;;
52530;SDS011;38441;52.894;6.040;2022-08-27T11:08:16;4.38;;;0.68;;
52530;SDS011;38441;52.894;6.040;2022-08-27T11:11:05;3.40;;;0.75;;
52530;SDS011;38441;52.894;6.040;2022-08-27T11:13:48;5.40;;;0.98;;
52530;SDS011;38441;52.894;6.040;2022-08-27T11:16:22;3.63;;;0.55;;
52530;SDS011;38441;52.894;6.040;2022-08-27T11:21:46;5.93;;;0.75;;
52530;SDS011;38441;52.894;6.040;2022-08-27T11:27:05;3.40;;;0.50;;
52530;SDS011;38441;52.894;6.040;2022-08-27T11:29:33;6.13;;;0.90;;
52530;SDS011;38441;52.894;6.040;2022-08-27T11:34:50;3.20;;;0.65;;
52530;SDS011;38441;52.894;6.040;2022-08-27T11:40:24;3.67;;;0.60;;
52530;SDS011;38441;52.894;6.040;2022-08-27T11:43:03;5.10;;;0.57;;
52530;SDS011;38441;52.894;6.040;2022-08-27T11:45:33;4.07;;;0.63;;
52530;SDS011;38441;52.894;6.040;2022-08-27T11:48:22;5.05;;;0.60;;
52530;SDS011;38441;52.894;6.040;2022-08-27T11:50:55;5.45;;;0.98;;
52530;SDS011;38441;52.894;6.040;2022-08-27T11:53:31;6.95;;;0.63;;
52530;SDS011;38441;52.894;6.040;2022-08-27T11:56:09;5.85;;;0.50;;
52530;SDS011;38441;52.894;6.040;2022-08-27T11:58:40;4.15;;;0.68;;
52530;SDS011;38441;52.894;6.040;2022-08-27T12:01:14;5.05;;;0.50;;
52530;SDS011;38441;52.894;6.040;2022-08-27T12:03:58;3.83;;;0.80;;
52530;SDS011;38441;52.894;6.040;2022-08-27T12:06:43;5.93;;;1.05;;
52530;SDS011;38441;52.894;6.040;2022-08-27T12:09:15;4.45;;;0.60;;
52530;SDS011;38441;52.894;6.040;2022-08-27T12:11:48;3.80;;;0.80;;
52530;SDS011;38441;52.894;6.040;2022-08-27T12:14:25;2.03;;;0.43;;
52530;SDS011;38441;52.894;6.040;2022-08-27T12:17:19;7.15;;;0.68;;
52530;SDS011;38441;52.894;6.040;2022-08-27T12:20:02;4.00;;;0.52;;
52530;SDS011;38441;52.894;6.040;2022-08-27T12:23:07;4.28;;;0.57;;
52530;SDS011;38441;52.894;6.040;2022-08-27T12:25:59;3.50;;;0.60;;
52530;SDS011;38441;52.894;6.040;2022-08-27T12:28:46;3.92;;;0.93;;
52530;SDS011;38441;52.894;6.040;2022-08-27T12:31:15;6.03;;;0.80;;
52530;SDS011;38441;52.894;6.040;2022-08-27T12:33:47;5.07;;;0.60;;
52530;SDS011;38441;52.894;6.040;2022-08-27T12:36:17;4.60;;;0.77;;
52530;SDS011;38441;52.894;6.040;2022-08-27T12:38:51;4.00;;;0.60;;
52530;SDS011;38441;52.894;6.040;2022-08-27T12:41:29;4.97;;;0.80;;
52530;SDS011;38441;52.894;6.040;2022-08-27T12:44:08;3.38;;;0.70;;
52530;SDS011;38441;52.894;6.040;2022-08-27T12:46:44;3.78;;;0.65;;
52530;SDS011;38441;52.894;6.040;2022-08-27T12:49:14;6.88;;;0.85;;
52530;SDS011;38441;52.894;6.040;2022-08-27T12:51:43;3.35;;;0.80;;
52530;SDS011;38441;52.894;6.040;2022-08-27T12:56:56;6.28;;;1.20;;
52530;SDS011;38441;52.894;6.040;2022-08-27T13:05:02;3.97;;;1.10;;
52530;SDS011;38441;52.894;6.040;2022-08-27T13:07:31;4.00;;;1.10;;
52530;SDS011;38441;52.894;6.040;2022-08-27T13:15:32;5.07;;;0.77;;
52530;SDS011;38441;52.894;6.040;2022-08-27T13:17:59;4.80;;;0.73;;
52530;SDS011;38441;52.894;6.040;2022-08-27T13:20:27;5.03;;;1.15;;
52530;SDS011;38441;52.894;6.040;2022-08-27T13:22:53;3.72;;;0.85;;
52530;SDS011;38441;52.894;6.040;2022-08-27T13:27:52;5.35;;;0.98;;
52530;SDS011;38441;52.894;6.040;2022-08-27T13:30:23;2.53;;;0.55;;
52530;SDS011;38441;52.894;6.040;2022-08-27T13:32:51;2.92;;;0.68;;
52530;SDS011;38441;52.894;6.040;2022-08-27T13:35:18;5.57;;;0.63;;
52530;SDS011;38441;52.894;6.040;2022-08-27T13:37:46;3.55;;;0.63;;
52530;SDS011;38441;52.894;6.040;2022-08-27T13:40:50;4.43;;;0.95;;
52530;SDS011;38441;52.894;6.040;2022-08-27T13:43:18;4.45;;;0.40;;
52530;SDS011;38441;52.894;6.040;2022-08-27T13:45:49;4.97;;;0.63;;
52530;SDS011;38441;52.894;6.040;2022-08-27T13:48:18;4.35;;;0.45;;
52530;SDS011;38441;52.894;6.040;2022-08-27T13:50:50;3.72;;;0.60;;
52530;SDS011;38441;52.894;6.040;2022-08-27T13:53:19;6.35;;;1.30;;
52530;SDS011;38441;52.894;6.040;2022-08-27T13:56:07;4.60;;;0.75;;
52530;SDS011;38441;52.894;6.040;2022-08-27T13:58:33;6.78;;;0.98;;
52530;SDS011;38441;52.894;6.040;2022-08-27T14:01:11;4.10;;;0.60;;
52530;SDS011;38441;52.894;6.040;2022-08-27T14:03:49;5.03;;;0.80;;
52530;SDS011;38441;52.894;6.040;2022-08-27T14:06:22;5.78;;;0.77;;
52530;SDS011;38441;52.894;6.040;2022-08-27T14:08:51;4.97;;;1.10;;
52530;SDS011;38441;52.894;6.040;2022-08-27T14:11:20;5.07;;;1.15;;
52530;SDS011;38441;52.894;6.040;2022-08-27T14:13:49;4.88;;;0.63;;
52530;SDS011;38441;52.894;6.040;2022-08-27T14:16:26;4.53;;;0.90;;
52530;SDS011;38441;52.894;6.040;2022-08-27T14:19:23;5.13;;;0.85;;
52530;SDS011;38441;52.894;6.040;2022-08-27T14:21:52;3.85;;;0.88;;
52530;SDS011;38441;52.894;6.040;2022-08-27T14:24:18;4.40;;;1.00;;
52530;SDS011;38441;52.894;6.040;2022-08-27T14:26:47;3.97;;;0.80;;
52530;SDS011;38441;52.894;6.040;2022-08-27T14:29:17;8.43;;;1.08;;
52530;SDS011;38441;52.894;6.040;2022-08-27T14:31:43;3.13;;;0.70;;
52530;SDS011;38441;52.894;6.040;2022-08-27T14:34:09;3.60;;;0.82;;
52530;SDS011;38441;52.894;6.040;2022-08-27T14:36:35;6.47;;;1.17;;
52530;SDS011;38441;52.894;6.040;2022-08-27T14:39:03;4.50;;;0.85;;
52530;SDS011;38441;52.894;6.040;2022-08-27T14:41:29;5.10;;;0.73;;
52530;SDS011;38441;52.894;6.040;2022-08-27T14:43:54;5.60;;;0.95;;
52530;SDS011;38441;52.894;6.040;2022-08-27T14:46:30;5.00;;;0.90;;
52530;SDS011;38441;52.894;6.040;2022-08-27T14:48:57;6.28;;;1.05;;
52530;SDS011;38441;52.894;6.040;2022-08-27T14:51:29;7.70;;;1.02;;
52530;SDS011;38441;52.894;6.040;2022-08-27T14:56:22;6.50;;;1.13;;
52530;SDS011;38441;52.894;6.040;2022-08-27T14:58:58;4.00;;;0.93;;
52530;SDS011;38441;52.894;6.040;2022-08-27T15:01:28;3.28;;;0.98;;
52530;SDS011;38441;52.894;6.040;2022-08-27T15:03:54;5.30;;;1.30;;
52530;SDS011;38441;52.894;6.040;2022-08-27T15:06:21;5.38;;;1.27;;
52530;SDS011;38441;52.894;6.040;2022-08-27T15:08:48;3.70;;;0.85;;
52530;SDS011;38441;52.894;6.040;2022-08-27T15:11:15;6.80;;;1.48;;
52530;SDS011;38441;52.894;6.040;2022-08-27T15:13:43;4.82;;;0.88;;
52530;SDS011;38441;52.894;6.040;2022-08-27T15:16:11;3.75;;;0.85;;
52530;SDS011;38441;52.894;6.040;2022-08-27T15:18:38;5.43;;;0.77;;
52530;SDS011;38441;52.894;6.040;2022-08-27T15:21:04;4.28;;;0.95;;
52530;SDS011;38441;52.894;6.040;2022-08-27T15:23:30;7.25;;;0.98;;
52530;SDS011;38441;52.894;6.040;2022-08-27T15:25:55;5.70;;;1.25;;
52530;SDS011;38441;52.894;6.040;2022-08-27T15:28:21;6.15;;;1.25;;
52530;SDS011;38441;52.894;6.040;2022-08-27T15:30:47;5.10;;;1.30;;
52530;SDS011;38441;52.894;6.040;2022-08-27T15:33:12;5.68;;;1.20;;
52530;SDS011;38441;52.894;6.040;2022-08-27T15:35:38;5.07;;;1.30;;
52530;SDS011;38441;52.894;6.040;2022-08-27T15:38:04;7.05;;;1.40;;
52530;SDS011;38441;52.894;6.040;2022-08-27T15:40:30;5.50;;;1.20;;
52530;SDS011;38441;52.894;6.040;2022-08-27T15:43:00;4.15;;;1.38;;
52530;SDS011;38441;52.894;6.040;2022-08-27T15:45:28;9.68;;;1.33;;
52530;SDS011;38441;52.894;6.040;2022-08-27T15:47:55;5.82;;;1.13;;
52530;SDS011;38441;52.894;6.040;2022-08-27T15:50:22;5.18;;;1.10;;
52530;SDS011;38441;52.894;6.040;2022-08-27T15:52:48;5.00;;;1.60;;
52530;SDS011;38441;52.894;6.040;2022-08-27T15:55:20;4.00;;;1.20;;
52530;SDS011;38441;52.894;6.040;2022-08-27T15:57:48;6.63;;;1.27;;
52530;SDS011;38441;52.894;6.040;2022-08-27T16:00:14;5.93;;;1.42;;
52530;SDS011;38441;52.894;6.040;2022-08-27T16:02:41;4.60;;;1.20;;
52530;SDS011;38441;52.894;6.040;2022-08-27T16:05:09;8.45;;;1.23;;
52530;SDS011;38441;52.894;6.040;2022-08-27T16:07:36;6.63;;;1.50;;
52530;SDS011;38441;52.894;6.040;2022-08-27T16:10:05;7.53;;;1.63;;
52530;SDS011;38441;52.894;6.040;2022-08-27T16:12:32;4.43;;;1.15;;
52530;SDS011;38441;52.894;6.040;2022-08-27T16:14:57;11.38;;;1.70;;
52530;SDS011;38441;52.894;6.040;2022-08-27T16:17:23;5.38;;;1.38;;